sensor_id;sensor_type;location;lat;lon;timestamp;P1;durP1;ratioP1;P2;durP2;ratioP2
58302;SDS011;44109;52.398;7.024;2022-08-19T00:01:23;8.20;;;6.63;;
58302;SDS011;44109;52.398;7.024;2022-08-19T00:03:53;9.77;;;6.38;;
58302;SDS011;44109;52.398;7.024;2022-08-19T00:06:21;9.18;;;6.28;;
58302;SDS011;44109;52.398;7.024;2022-08-19T00:08:48;7.30;;;5.57;;
58302;SDS011;44109;52.398;7.024;2022-08-19T00:11:17;9.82;;;5.70;;
58302;SDS011;44109;52.398;7.024;2022-08-19T00:13:46;8.32;;;6.20;;
58302;SDS011;44109;52.398;7.024;2022-08-19T00:16:17;11.85;;;6.93;;
58302;SDS011;44109;52.398;7.024;2022-08-19T00:18:45;8.20;;;6.40;;
58302;SDS011;44109;52.398;7.024;2022-08-19T00:21:12;7.68;;;5.65;;
58302;SDS011;44109;52.398;7.024;2022-08-19T00:23:40;10.55;;;7.13;;
58302;SDS011;44109;52.398;7.024;2022-08-19T00:26:08;7.93;;;5.95;;
58302;SDS011;44109;52.398;7.024;2022-08-19T00:28:38;7.72;;;5.35;;
58302;SDS011;44109;52.398;7.024;2022-08-19T00:31:06;8.45;;;6.35;;
58302;SDS011;44109;52.398;7.024;2022-08-19T00:33:36;10.05;;;6.80;;
58302;SDS011;44109;52.398;7.024;2022-08-19T00:36:05;8.18;;;5.53;;
58302;SDS011;44109;52.398;7.024;2022-08-19T00:38:35;8.05;;;5.60;;
58302;SDS011;44109;52.398;7.024;2022-08-19T00:41:07;8.85;;;6.03;;
58302;SDS011;44109;52.398;7.024;2022-08-19T00:43:35;7.07;;;5.15;;
58302;SDS011;44109;52.398;7.024;2022-08-19T00:46:03;7.43;;;5.20;;
58302;SDS011;44109;52.398;7.024;2022-08-19T00:48:31;8.55;;;6.90;;
58302;SDS011;44109;52.398;7.024;2022-08-19T00:51:02;8.80;;;6.18;;
58302;SDS011;44109;52.398;7.024;2022-08-19T00:53:32;6.32;;;4.88;;
58302;SDS011;44109;52.398;7.024;2022-08-19T00:56:00;6.68;;;4.82;;
58302;SDS011;44109;52.398;7.024;2022-08-19T00:58:32;6.75;;;4.85;;
58302;SDS011;44109;52.398;7.024;2022-08-19T01:01:02;8.20;;;5.50;;
58302;SDS011;44109;52.398;7.024;2022-08-19T01:03:33;5.93;;;4.75;;
58302;SDS011;44109;52.398;7.024;2022-08-19T01:06:02;6.15;;;4.97;;
58302;SDS011;44109;52.398;7.024;2022-08-19T01:08:30;10.20;;;5.95;;
58302;SDS011;44109;52.398;7.024;2022-08-19T01:10:58;6.85;;;5.13;;
58302;SDS011;44109;52.398;7.024;2022-08-19T01:13:28;9.55;;;6.22;;
58302;SDS011;44109;52.398;7.024;2022-08-19T01:16:01;6.83;;;5.40;;
58302;SDS011;44109;52.398;7.024;2022-08-19T01:18:35;7.55;;;5.28;;
58302;SDS011;44109;52.398;7.024;2022-08-19T01:21:09;7.35;;;5.07;;
58302;SDS011;44109;52.398;7.024;2022-08-19T01:23:50;6.55;;;4.53;;
58302;SDS011;44109;52.398;7.024;2022-08-19T01:26:18;7.50;;;5.15;;
58302;SDS011;44109;52.398;7.024;2022-08-19T01:28:50;6.55;;;4.70;;
58302;SDS011;44109;52.398;7.024;2022-08-19T01:31:22;7.28;;;5.78;;
58302;SDS011;44109;52.398;7.024;2022-08-19T01:33:56;6.82;;;4.80;;
58302;SDS011;44109;52.398;7.024;2022-08-19T01:36:30;7.38;;;5.07;;
58302;SDS011;44109;52.398;7.024;2022-08-19T01:39:03;6.63;;;4.70;;
58302;SDS011;44109;52.398;7.024;2022-08-19T01:41:34;6.78;;;4.68;;
58302;SDS011;44109;52.398;7.024;2022-08-19T01:44:02;7.18;;;4.72;;
58302;SDS011;44109;52.398;7.024;2022-08-19T01:46:31;7.68;;;5.43;;
58302;SDS011;44109;52.398;7.024;2022-08-19T01:48:59;8.05;;;5.18;;
58302;SDS011;44109;52.398;7.024;2022-08-19T01:51:27;5.53;;;4.30;;
58302;SDS011;44109;52.398;7.024;2022-08-19T01:53:56;7.22;;;4.90;;
58302;SDS011;44109;52.398;7.024;2022-08-19T01:56:25;5.97;;;4.60;;
58302;SDS011;44109;52.398;7.024;2022-08-19T01:58:54;7.85;;;4.65;;
58302;SDS011;44109;52.398;7.024;2022-08-19T02:01:27;6.63;;;5.05;;
58302;SDS011;44109;52.398;7.024;2022-08-19T02:03:58;6.50;;;4.68;;
58302;SDS011;44109;52.398;7.024;2022-08-19T02:06:26;8.35;;;5.00;;
58302;SDS011;44109;52.398;7.024;2022-08-19T02:08:55;7.05;;;4.63;;
58302;SDS011;44109;52.398;7.024;2022-08-19T02:11:24;6.82;;;4.75;;
58302;SDS011;44109;52.398;7.024;2022-08-19T02:13:57;7.38;;;4.68;;
58302;SDS011;44109;52.398;7.024;2022-08-19T02:16:26;6.40;;;4.40;;
58302;SDS011;44109;52.398;7.024;2022-08-19T02:18:54;6.35;;;4.88;;
58302;SDS011;44109;52.398;7.024;2022-08-19T02:21:23;6.82;;;4.47;;
58302;SDS011;44109;52.398;7.024;2022-08-19T02:23:51;8.00;;;5.30;;
58302;SDS011;44109;52.398;7.024;2022-08-19T02:26:19;7.30;;;5.45;;
58302;SDS011;44109;52.398;7.024;2022-08-19T02:28:48;7.05;;;4.75;;
58302;SDS011;44109;52.398;7.024;2022-08-19T02:31:17;6.47;;;4.32;;
58302;SDS011;44109;52.398;7.024;2022-08-19T02:33:47;6.80;;;5.13;;
58302;SDS011;44109;52.398;7.024;2022-08-19T02:36:16;5.93;;;4.65;;
58302;SDS011;44109;52.398;7.024;2022-08-19T02:38:44;6.88;;;4.72;;
58302;SDS011;44109;52.398;7.024;2022-08-19T02:41:12;5.97;;;4.47;;
58302;SDS011;44109;52.398;7.024;2022-08-19T02:43:43;7.25;;;5.30;;
58302;SDS011;44109;52.398;7.024;2022-08-19T02:46:14;6.63;;;4.13;;
58302;SDS011;44109;52.398;7.024;2022-08-19T02:48:47;5.45;;;3.25;;
58302;SDS011;44109;52.398;7.024;2022-08-19T02:51:16;9.32;;;5.43;;
58302;SDS011;44109;52.398;7.024;2022-08-19T02:53:46;6.30;;;4.35;;
58302;SDS011;44109;52.398;7.024;2022-08-19T02:56:13;5.78;;;3.65;;
58302;SDS011;44109;52.398;7.024;2022-08-19T02:58:41;7.55;;;5.40;;
58302;SDS011;44109;52.398;7.024;2022-08-19T03:01:10;6.28;;;4.53;;
58302;SDS011;44109;52.398;7.024;2022-08-19T03:03:47;6.25;;;4.30;;
58302;SDS011;44109;52.398;7.024;2022-08-19T03:06:15;6.32;;;4.82;;
58302;SDS011;44109;52.398;7.024;2022-08-19T03:08:44;8.68;;;4.78;;
58302;SDS011;44109;52.398;7.024;2022-08-19T03:11:15;6.65;;;4.78;;
58302;SDS011;44109;52.398;7.024;2022-08-19T03:13:45;5.32;;;4.10;;
58302;SDS011;44109;52.398;7.024;2022-08-19T03:16:14;5.93;;;4.45;;
58302;SDS011;44109;52.398;7.024;2022-08-19T03:18:43;5.65;;;4.50;;
58302;SDS011;44109;52.398;7.024;2022-08-19T03:21:16;8.23;;;5.05;;
58302;SDS011;44109;52.398;7.024;2022-08-19T03:23:45;7.18;;;5.15;;
58302;SDS011;44109;52.398;7.024;2022-08-19T03:26:13;7.00;;;4.43;;
58302;SDS011;44109;52.398;7.024;2022-08-19T03:28:41;6.13;;;3.88;;
58302;SDS011;44109;52.398;7.024;2022-08-19T03:31:12;8.68;;;5.30;;
58302;SDS011;44109;52.398;7.024;2022-08-19T03:33:40;10.77;;;6.00;;
58302;SDS011;44109;52.398;7.024;2022-08-19T03:36:09;6.32;;;5.18;;
58302;SDS011;44109;52.398;7.024;2022-08-19T03:38:41;8.15;;;5.68;;
58302;SDS011;44109;52.398;7.024;2022-08-19T03:41:13;6.15;;;4.55;;
58302;SDS011;44109;52.398;7.024;2022-08-19T03:43:43;6.82;;;5.07;;
58302;SDS011;44109;52.398;7.024;2022-08-19T03:46:13;6.82;;;5.55;;
58302;SDS011;44109;52.398;7.024;2022-08-19T03:48:43;8.13;;;5.43;;
58302;SDS011;44109;52.398;7.024;2022-08-19T03:51:15;7.22;;;4.65;;
58302;SDS011;44109;52.398;7.024;2022-08-19T03:53:47;6.07;;;4.18;;
58302;SDS011;44109;52.398;7.024;2022-08-19T03:56:15;5.80;;;4.00;;
58302;SDS011;44109;52.398;7.024;2022-08-19T03:58:43;7.80;;;4.07;;
58302;SDS011;44109;52.398;7.024;2022-08-19T04:01:12;5.15;;;3.60;;
58302;SDS011;44109;52.398;7.024;2022-08-19T04:03:44;4.95;;;3.88;;
58302;SDS011;44109;52.398;7.024;2022-08-19T04:06:12;5.65;;;3.78;;
58302;SDS011;44109;52.398;7.024;2022-08-19T04:08:43;4.63;;;3.88;;
58302;SDS011;44109;52.398;7.024;2022-08-19T04:11:14;5.00;;;3.05;;
58302;SDS011;44109;52.398;7.024;2022-08-19T04:13:46;5.07;;;3.58;;
58302;SDS011;44109;52.398;7.024;2022-08-19T04:16:14;5.43;;;3.92;;
58302;SDS011;44109;52.398;7.024;2022-08-19T04:18:42;6.05;;;4.78;;
58302;SDS011;44109;52.398;7.024;2022-08-19T04:21:14;6.95;;;5.22;;
58302;SDS011;44109;52.398;7.024;2022-08-19T04:23:44;7.10;;;4.10;;
58302;SDS011;44109;52.398;7.024;2022-08-19T04:26:14;5.70;;;4.70;;
58302;SDS011;44109;52.398;7.024;2022-08-19T04:28:44;7.03;;;5.30;;
58302;SDS011;44109;52.398;7.024;2022-08-19T04:31:12;6.47;;;4.50;;
58302;SDS011;44109;52.398;7.024;2022-08-19T04:33:42;7.35;;;4.60;;
58302;SDS011;44109;52.398;7.024;2022-08-19T04:36:15;6.10;;;4.50;;
58302;SDS011;44109;52.398;7.024;2022-08-19T04:38:46;7.20;;;5.65;;
58302;SDS011;44109;52.398;7.024;2022-08-19T04:41:16;6.15;;;4.47;;
58302;SDS011;44109;52.398;7.024;2022-08-19T04:44:01;6.97;;;5.28;;
58302;SDS011;44109;52.398;7.024;2022-08-19T04:46:29;5.85;;;4.90;;
58302;SDS011;44109;52.398;7.024;2022-08-19T04:48:58;6.32;;;5.03;;
58302;SDS011;44109;52.398;7.024;2022-08-19T04:51:26;7.43;;;4.93;;
58302;SDS011;44109;52.398;7.024;2022-08-19T04:53:57;6.20;;;4.55;;
58302;SDS011;44109;52.398;7.024;2022-08-19T04:56:27;6.32;;;4.72;;
58302;SDS011;44109;52.398;7.024;2022-08-19T04:58:55;5.88;;;4.47;;
58302;SDS011;44109;52.398;7.024;2022-08-19T05:01:24;5.72;;;3.88;;
58302;SDS011;44109;52.398;7.024;2022-08-19T05:03:55;5.60;;;4.05;;
58302;SDS011;44109;52.398;7.024;2022-08-19T05:06:24;5.53;;;3.65;;
58302;SDS011;44109;52.398;7.024;2022-08-19T05:08:51;5.30;;;4.18;;
58302;SDS011;44109;52.398;7.024;2022-08-19T05:11:21;5.53;;;4.18;;
58302;SDS011;44109;52.398;7.024;2022-08-19T05:13:53;6.10;;;4.32;;
58302;SDS011;44109;52.398;7.024;2022-08-19T05:16:23;6.50;;;4.38;;
58302;SDS011;44109;52.398;7.024;2022-08-19T05:18:53;7.25;;;5.25;;
58302;SDS011;44109;52.398;7.024;2022-08-19T05:21:40;6.05;;;4.90;;
58302;SDS011;44109;52.398;7.024;2022-08-19T05:24:27;7.85;;;5.70;;
58302;SDS011;44109;52.398;7.024;2022-08-19T05:26:55;6.88;;;5.47;;
58302;SDS011;44109;52.398;7.024;2022-08-19T05:29:26;7.30;;;6.03;;
58302;SDS011;44109;52.398;7.024;2022-08-19T05:31:54;9.10;;;6.30;;
58302;SDS011;44109;52.398;7.024;2022-08-19T05:34:22;7.80;;;6.40;;
58302;SDS011;44109;52.398;7.024;2022-08-19T05:36:52;7.30;;;5.97;;
58302;SDS011;44109;52.398;7.024;2022-08-19T05:39:23;8.30;;;6.15;;
58302;SDS011;44109;52.398;7.024;2022-08-19T05:41:54;7.88;;;5.38;;
58302;SDS011;44109;52.398;7.024;2022-08-19T05:44:27;8.02;;;6.13;;
58302;SDS011;44109;52.398;7.024;2022-08-19T05:46:58;8.55;;;6.07;;
58302;SDS011;44109;52.398;7.024;2022-08-19T05:49:26;9.13;;;7.45;;
58302;SDS011;44109;52.398;7.024;2022-08-19T05:51:55;8.75;;;6.93;;
58302;SDS011;44109;52.398;7.024;2022-08-19T05:54:23;9.32;;;6.72;;
58302;SDS011;44109;52.398;7.024;2022-08-19T05:56:51;8.52;;;6.93;;
58302;SDS011;44109;52.398;7.024;2022-08-19T05:59:20;10.77;;;7.82;;
58302;SDS011;44109;52.398;7.024;2022-08-19T06:01:52;9.63;;;7.47;;
58302;SDS011;44109;52.398;7.024;2022-08-19T06:04:21;9.27;;;7.93;;
58302;SDS011;44109;52.398;7.024;2022-08-19T06:06:50;9.02;;;6.07;;
58302;SDS011;44109;52.398;7.024;2022-08-19T06:09:20;8.15;;;5.85;;
58302;SDS011;44109;52.398;7.024;2022-08-19T06:11:49;8.90;;;6.65;;
58302;SDS011;44109;52.398;7.024;2022-08-19T06:14:21;7.75;;;6.03;;
58302;SDS011;44109;52.398;7.024;2022-08-19T06:16:53;8.68;;;6.70;;
58302;SDS011;44109;52.398;7.024;2022-08-19T06:19:22;8.15;;;7.22;;
58302;SDS011;44109;52.398;7.024;2022-08-19T06:21:51;7.60;;;6.55;;
58302;SDS011;44109;52.398;7.024;2022-08-19T06:24:20;9.10;;;7.55;;
58302;SDS011;44109;52.398;7.024;2022-08-19T06:26:52;9.52;;;7.20;;
58302;SDS011;44109;52.398;7.024;2022-08-19T06:29:22;10.20;;;7.38;;
58302;SDS011;44109;52.398;7.024;2022-08-19T06:31:54;7.60;;;6.22;;
58302;SDS011;44109;52.398;7.024;2022-08-19T06:34:26;8.85;;;7.40;;
58302;SDS011;44109;52.398;7.024;2022-08-19T06:36:57;8.57;;;6.72;;
58302;SDS011;44109;52.398;7.024;2022-08-19T06:39:30;9.93;;;8.43;;
58302;SDS011;44109;52.398;7.024;2022-08-19T06:42:01;8.55;;;7.15;;
58302;SDS011;44109;52.398;7.024;2022-08-19T06:44:35;9.48;;;7.28;;
58302;SDS011;44109;52.398;7.024;2022-08-19T06:47:06;9.45;;;7.15;;
58302;SDS011;44109;52.398;7.024;2022-08-19T06:49:37;7.53;;;6.22;;
58302;SDS011;44109;52.398;7.024;2022-08-19T06:52:04;8.05;;;6.72;;
58302;SDS011;44109;52.398;7.024;2022-08-19T06:54:35;10.63;;;8.02;;
58302;SDS011;44109;52.398;7.024;2022-08-19T06:57:03;10.18;;;6.93;;
58302;SDS011;44109;52.398;7.024;2022-08-19T06:59:31;11.52;;;6.90;;
58302;SDS011;44109;52.398;7.024;2022-08-19T07:02:00;8.57;;;6.05;;
58302;SDS011;44109;52.398;7.024;2022-08-19T07:04:34;9.88;;;6.30;;
58302;SDS011;44109;52.398;7.024;2022-08-19T07:07:05;8.98;;;6.78;;
58302;SDS011;44109;52.398;7.024;2022-08-19T07:09:38;10.25;;;7.30;;
58302;SDS011;44109;52.398;7.024;2022-08-19T07:12:10;8.52;;;6.03;;
58302;SDS011;44109;52.398;7.024;2022-08-19T07:14:41;7.97;;;6.00;;
58302;SDS011;44109;52.398;7.024;2022-08-19T07:17:11;8.25;;;5.90;;
58302;SDS011;44109;52.398;7.024;2022-08-19T07:19:41;6.85;;;6.13;;
58302;SDS011;44109;52.398;7.024;2022-08-19T07:22:09;7.85;;;6.07;;
58302;SDS011;44109;52.398;7.024;2022-08-19T07:24:37;8.85;;;6.05;;
58302;SDS011;44109;52.398;7.024;2022-08-19T07:27:06;7.95;;;5.97;;
58302;SDS011;44109;52.398;7.024;2022-08-19T07:29:35;8.10;;;5.93;;
58302;SDS011;44109;52.398;7.024;2022-08-19T07:32:04;5.20;;;4.32;;
58302;SDS011;44109;52.398;7.024;2022-08-19T07:34:32;7.20;;;5.78;;
58302;SDS011;44109;52.398;7.024;2022-08-19T07:37:05;7.32;;;5.57;;
58302;SDS011;44109;52.398;7.024;2022-08-19T07:42:06;6.47;;;5.32;;
58302;SDS011;44109;52.398;7.024;2022-08-19T07:47:04;5.68;;;4.43;;
58302;SDS011;44109;52.398;7.024;2022-08-19T07:49:33;9.23;;;6.47;;
58302;SDS011;44109;52.398;7.024;2022-08-19T07:52:02;5.43;;;4.75;;
58302;SDS011;44109;52.398;7.024;2022-08-19T07:54:36;5.93;;;4.53;;
58302;SDS011;44109;52.398;7.024;2022-08-19T07:57:06;7.15;;;4.60;;
58302;SDS011;44109;52.398;7.024;2022-08-19T07:59:35;8.32;;;5.53;;
58302;SDS011;44109;52.398;7.024;2022-08-19T08:02:03;8.00;;;6.38;;
58302;SDS011;44109;52.398;7.024;2022-08-19T08:04:32;5.60;;;4.43;;
58302;SDS011;44109;52.398;7.024;2022-08-19T08:07:18;5.57;;;4.05;;
58302;SDS011;44109;52.398;7.024;2022-08-19T08:10:05;6.10;;;4.13;;
58302;SDS011;44109;52.398;7.024;2022-08-19T08:12:37;6.28;;;5.40;;
58302;SDS011;44109;52.398;7.024;2022-08-19T08:15:08;6.30;;;4.60;;
58302;SDS011;44109;52.398;7.024;2022-08-19T08:17:44;9.57;;;5.22;;
58302;SDS011;44109;52.398;7.024;2022-08-19T08:20:12;8.57;;;4.85;;
58302;SDS011;44109;52.398;7.024;2022-08-19T08:22:44;7.63;;;5.68;;
58302;SDS011;44109;52.398;7.024;2022-08-19T08:25:30;6.72;;;4.85;;
58302;SDS011;44109;52.398;7.024;2022-08-19T08:27:58;6.70;;;4.70;;
58302;SDS011;44109;52.398;7.024;2022-08-19T08:30:26;7.75;;;6.25;;
58302;SDS011;44109;52.398;7.024;2022-08-19T08:32:56;8.20;;;6.32;;
58302;SDS011;44109;52.398;7.024;2022-08-19T08:35:23;8.20;;;6.63;;
58302;SDS011;44109;52.398;7.024;2022-08-19T08:37:53;10.27;;;6.13;;
58302;SDS011;44109;52.398;7.024;2022-08-19T08:40:23;7.28;;;6.28;;
58302;SDS011;44109;52.398;7.024;2022-08-19T08:42:58;6.93;;;6.22;;
58302;SDS011;44109;52.398;7.024;2022-08-19T08:45:33;7.10;;;5.53;;
58302;SDS011;44109;52.398;7.024;2022-08-19T08:48:12;7.55;;;5.75;;
58302;SDS011;44109;52.398;7.024;2022-08-19T08:50:47;9.05;;;6.47;;
58302;SDS011;44109;52.398;7.024;2022-08-19T08:53:21;7.43;;;5.88;;
58302;SDS011;44109;52.398;7.024;2022-08-19T08:55:51;9.88;;;7.95;;
58302;SDS011;44109;52.398;7.024;2022-08-19T08:58:20;8.05;;;6.63;;
58302;SDS011;44109;52.398;7.024;2022-08-19T09:00:58;9.48;;;8.02;;
58302;SDS011;44109;52.398;7.024;2022-08-19T09:03:26;12.13;;;8.88;;
58302;SDS011;44109;52.398;7.024;2022-08-19T09:05:56;9.32;;;7.07;;
58302;SDS011;44109;52.398;7.024;2022-08-19T09:08:37;10.07;;;7.90;;
58302;SDS011;44109;52.398;7.024;2022-08-19T09:14:15;11.57;;;10.25;;
58302;SDS011;44109;52.398;7.024;2022-08-19T09:17:03;12.95;;;10.55;;
58302;SDS011;44109;52.398;7.024;2022-08-19T09:19:34;11.65;;;9.30;;
58302;SDS011;44109;52.398;7.024;2022-08-19T09:22:03;10.68;;;8.07;;
58302;SDS011;44109;52.398;7.024;2022-08-19T09:24:32;12.15;;;8.70;;
58302;SDS011;44109;52.398;7.024;2022-08-19T09:27:01;10.48;;;8.20;;
58302;SDS011;44109;52.398;7.024;2022-08-19T09:29:29;11.45;;;8.85;;
58302;SDS011;44109;52.398;7.024;2022-08-19T09:31:57;10.75;;;8.88;;
58302;SDS011;44109;52.398;7.024;2022-08-19T09:34:24;12.43;;;10.57;;
58302;SDS011;44109;52.398;7.024;2022-08-19T09:36:55;14.02;;;9.73;;
58302;SDS011;44109;52.398;7.024;2022-08-19T09:39:24;12.77;;;9.18;;
58302;SDS011;44109;52.398;7.024;2022-08-19T09:41:53;11.77;;;9.50;;
58302;SDS011;44109;52.398;7.024;2022-08-19T09:44:21;10.73;;;7.95;;
58302;SDS011;44109;52.398;7.024;2022-08-19T09:46:49;12.43;;;8.13;;
58302;SDS011;44109;52.398;7.024;2022-08-19T09:49:17;12.00;;;10.70;;
58302;SDS011;44109;52.398;7.024;2022-08-19T09:51:48;10.80;;;7.65;;
58302;SDS011;44109;52.398;7.024;2022-08-19T09:54:19;11.45;;;7.15;;
58302;SDS011;44109;52.398;7.024;2022-08-19T09:56:47;10.00;;;8.00;;
58302;SDS011;44109;52.398;7.024;2022-08-19T09:59:15;10.20;;;8.18;;
58302;SDS011;44109;52.398;7.024;2022-08-19T10:01:43;9.73;;;7.30;;
58302;SDS011;44109;52.398;7.024;2022-08-19T10:04:11;11.40;;;7.75;;
58302;SDS011;44109;52.398;7.024;2022-08-19T10:06:39;10.52;;;8.27;;
58302;SDS011;44109;52.398;7.024;2022-08-19T10:09:08;10.20;;;8.52;;
58302;SDS011;44109;52.398;7.024;2022-08-19T10:11:39;8.32;;;6.95;;
58302;SDS011;44109;52.398;7.024;2022-08-19T10:14:08;6.60;;;5.82;;
58302;SDS011;44109;52.398;7.024;2022-08-19T10:16:37;8.35;;;7.05;;
58302;SDS011;44109;52.398;7.024;2022-08-19T10:19:06;8.93;;;6.95;;
58302;SDS011;44109;52.398;7.024;2022-08-19T10:21:35;10.43;;;6.20;;
58302;SDS011;44109;52.398;7.024;2022-08-19T10:24:04;12.23;;;8.32;;
58302;SDS011;44109;52.398;7.024;2022-08-19T10:26:33;11.77;;;9.40;;
58302;SDS011;44109;52.398;7.024;2022-08-19T10:29:07;8.60;;;6.82;;
58302;SDS011;44109;52.398;7.024;2022-08-19T10:31:35;8.13;;;7.30;;
58302;SDS011;44109;52.398;7.024;2022-08-19T10:34:04;9.13;;;8.15;;
58302;SDS011;44109;52.398;7.024;2022-08-19T10:36:33;8.02;;;6.28;;
58302;SDS011;44109;52.398;7.024;2022-08-19T10:39:07;9.35;;;6.78;;
58302;SDS011;44109;52.398;7.024;2022-08-19T10:41:38;7.65;;;5.90;;
58302;SDS011;44109;52.398;7.024;2022-08-19T10:44:10;11.25;;;6.47;;
58302;SDS011;44109;52.398;7.024;2022-08-19T10:46:41;11.20;;;7.43;;
58302;SDS011;44109;52.398;7.024;2022-08-19T10:49:10;10.35;;;7.10;;
58302;SDS011;44109;52.398;7.024;2022-08-19T10:51:38;11.00;;;7.53;;
58302;SDS011;44109;52.398;7.024;2022-08-19T10:54:24;7.95;;;6.70;;
58302;SDS011;44109;52.398;7.024;2022-08-19T10:57:12;6.55;;;5.85;;
58302;SDS011;44109;52.398;7.024;2022-08-19T10:59:39;6.40;;;5.75;;
58302;SDS011;44109;52.398;7.024;2022-08-19T11:02:09;6.15;;;5.22;;
58302;SDS011;44109;52.398;7.024;2022-08-19T11:04:39;7.78;;;5.88;;
58302;SDS011;44109;52.398;7.024;2022-08-19T11:07:07;5.55;;;4.47;;
58302;SDS011;44109;52.398;7.024;2022-08-19T11:09:37;7.65;;;5.15;;
58302;SDS011;44109;52.398;7.024;2022-08-19T11:14:38;5.65;;;4.68;;
58302;SDS011;44109;52.398;7.024;2022-08-19T11:17:05;8.18;;;5.88;;
58302;SDS011;44109;52.398;7.024;2022-08-19T11:19:36;6.43;;;5.68;;
58302;SDS011;44109;52.398;7.024;2022-08-19T11:22:06;6.63;;;5.07;;
58302;SDS011;44109;52.398;7.024;2022-08-19T11:24:35;6.40;;;5.57;;
58302;SDS011;44109;52.398;7.024;2022-08-19T11:27:03;6.50;;;4.20;;
58302;SDS011;44109;52.398;7.024;2022-08-19T11:29:35;5.05;;;4.50;;
58302;SDS011;44109;52.398;7.024;2022-08-19T11:32:05;6.57;;;5.13;;
58302;SDS011;44109;52.398;7.024;2022-08-19T11:34:37;5.72;;;4.43;;
58302;SDS011;44109;52.398;7.024;2022-08-19T11:37:05;7.55;;;4.63;;
58302;SDS011;44109;52.398;7.024;2022-08-19T11:39:34;5.72;;;5.05;;
58302;SDS011;44109;52.398;7.024;2022-08-19T11:42:03;5.50;;;4.57;;
58302;SDS011;44109;52.398;7.024;2022-08-19T11:44:53;8.48;;;6.03;;
58302;SDS011;44109;52.398;7.024;2022-08-19T11:47:22;7.40;;;5.88;;
58302;SDS011;44109;52.398;7.024;2022-08-19T11:49:52;4.63;;;4.13;;
58302;SDS011;44109;52.398;7.024;2022-08-19T11:52:19;7.15;;;5.30;;
58302;SDS011;44109;52.398;7.024;2022-08-19T11:54:47;6.95;;;5.57;;
58302;SDS011;44109;52.398;7.024;2022-08-19T11:57:15;9.55;;;4.97;;
58302;SDS011;44109;52.398;7.024;2022-08-19T11:59:47;7.47;;;6.32;;
58302;SDS011;44109;52.398;7.024;2022-08-19T12:02:16;5.13;;;4.22;;
58302;SDS011;44109;52.398;7.024;2022-08-19T12:04:46;5.60;;;4.47;;
58302;SDS011;44109;52.398;7.024;2022-08-19T12:07:13;6.85;;;5.68;;
58302;SDS011;44109;52.398;7.024;2022-08-19T12:09:41;6.18;;;5.07;;
58302;SDS011;44109;52.398;7.024;2022-08-19T12:12:09;7.88;;;4.68;;
58302;SDS011;44109;52.398;7.024;2022-08-19T12:14:37;5.55;;;4.80;;
58302;SDS011;44109;52.398;7.024;2022-08-19T12:17:04;6.03;;;5.28;;
58302;SDS011;44109;52.398;7.024;2022-08-19T12:19:35;6.10;;;5.00;;
58302;SDS011;44109;52.398;7.024;2022-08-19T12:22:06;5.53;;;5.03;;
58302;SDS011;44109;52.398;7.024;2022-08-19T12:24:34;5.22;;;4.70;;
58302;SDS011;44109;52.398;7.024;2022-08-19T12:27:01;6.22;;;5.15;;
58302;SDS011;44109;52.398;7.024;2022-08-19T12:29:29;6.00;;;4.93;;
58302;SDS011;44109;52.398;7.024;2022-08-19T12:31:58;6.13;;;5.32;;
58302;SDS011;44109;52.398;7.024;2022-08-19T12:34:27;6.88;;;6.18;;
58302;SDS011;44109;52.398;7.024;2022-08-19T12:36:57;6.22;;;5.40;;
58302;SDS011;44109;52.398;7.024;2022-08-19T12:39:27;6.43;;;5.78;;
58302;SDS011;44109;52.398;7.024;2022-08-19T12:41:56;6.32;;;5.25;;
58302;SDS011;44109;52.398;7.024;2022-08-19T12:44:24;6.00;;;5.05;;
58302;SDS011;44109;52.398;7.024;2022-08-19T12:46:52;7.13;;;5.53;;
58302;SDS011;44109;52.398;7.024;2022-08-19T12:49:19;5.07;;;4.57;;
58302;SDS011;44109;52.398;7.024;2022-08-19T12:51:47;7.10;;;6.40;;
58302;SDS011;44109;52.398;7.024;2022-08-19T12:54:14;6.90;;;5.82;;
58302;SDS011;44109;52.398;7.024;2022-08-19T12:56:43;6.55;;;5.53;;
58302;SDS011;44109;52.398;7.024;2022-08-19T12:59:11;6.15;;;5.20;;
58302;SDS011;44109;52.398;7.024;2022-08-19T13:01:39;5.90;;;5.10;;
58302;SDS011;44109;52.398;7.024;2022-08-19T13:04:07;5.85;;;4.60;;
58302;SDS011;44109;52.398;7.024;2022-08-19T13:06:35;6.57;;;5.75;;
58302;SDS011;44109;52.398;7.024;2022-08-19T13:09:03;7.30;;;5.85;;
58302;SDS011;44109;52.398;7.024;2022-08-19T13:11:31;6.38;;;5.68;;
58302;SDS011;44109;52.398;7.024;2022-08-19T13:14:01;7.25;;;5.72;;
58302;SDS011;44109;52.398;7.024;2022-08-19T13:16:30;6.95;;;5.10;;
58302;SDS011;44109;52.398;7.024;2022-08-19T13:18:58;8.13;;;5.40;;
58302;SDS011;44109;52.398;7.024;2022-08-19T13:21:28;7.07;;;5.90;;
58302;SDS011;44109;52.398;7.024;2022-08-19T13:23:56;6.72;;;5.72;;
58302;SDS011;44109;52.398;7.024;2022-08-19T13:26:24;6.57;;;5.90;;
58302;SDS011;44109;52.398;7.024;2022-08-19T13:28:51;6.82;;;6.05;;
58302;SDS011;44109;52.398;7.024;2022-08-19T13:31:39;6.57;;;5.85;;
58302;SDS011;44109;52.398;7.024;2022-08-19T13:34:27;6.78;;;5.65;;
58302;SDS011;44109;52.398;7.024;2022-08-19T13:36:58;9.57;;;5.72;;
58302;SDS011;44109;52.398;7.024;2022-08-19T13:39:28;7.47;;;5.68;;
58302;SDS011;44109;52.398;7.024;2022-08-19T13:41:58;7.38;;;5.85;;
58302;SDS011;44109;52.398;7.024;2022-08-19T13:44:26;6.53;;;5.60;;
58302;SDS011;44109;52.398;7.024;2022-08-19T13:47:00;6.93;;;5.00;;
58302;SDS011;44109;52.398;7.024;2022-08-19T13:49:32;6.28;;;5.10;;
58302;SDS011;44109;52.398;7.024;2022-08-19T13:52:02;7.35;;;5.57;;
58302;SDS011;44109;52.398;7.024;2022-08-19T13:54:31;7.72;;;6.03;;
58302;SDS011;44109;52.398;7.024;2022-08-19T13:56:58;6.75;;;5.82;;
58302;SDS011;44109;52.398;7.024;2022-08-19T13:59:26;6.57;;;5.80;;
58302;SDS011;44109;52.398;7.024;2022-08-19T14:01:57;5.45;;;4.90;;
58302;SDS011;44109;52.398;7.024;2022-08-19T14:04:26;6.88;;;5.85;;
58302;SDS011;44109;52.398;7.024;2022-08-19T14:06:54;6.55;;;5.75;;
58302;SDS011;44109;52.398;7.024;2022-08-19T14:09:22;8.52;;;5.93;;
58302;SDS011;44109;52.398;7.024;2022-08-19T14:11:49;8.63;;;6.55;;
58302;SDS011;44109;52.398;7.024;2022-08-19T14:14:17;6.80;;;5.93;;
58302;SDS011;44109;52.398;7.024;2022-08-19T14:16:44;7.40;;;5.93;;
58302;SDS011;44109;52.398;7.024;2022-08-19T14:19:12;7.00;;;5.78;;
58302;SDS011;44109;52.398;7.024;2022-08-19T14:21:41;6.85;;;5.97;;
58302;SDS011;44109;52.398;7.024;2022-08-19T14:24:08;10.40;;;6.07;;
58302;SDS011;44109;52.398;7.024;2022-08-19T14:26:36;7.47;;;5.95;;
58302;SDS011;44109;52.398;7.024;2022-08-19T14:29:04;7.90;;;5.43;;
58302;SDS011;44109;52.398;7.024;2022-08-19T14:31:32;6.30;;;5.32;;
58302;SDS011;44109;52.398;7.024;2022-08-19T14:33:59;7.15;;;5.13;;
58302;SDS011;44109;52.398;7.024;2022-08-19T14:36:27;5.90;;;5.00;;
58302;SDS011;44109;52.398;7.024;2022-08-19T14:38:56;6.35;;;5.75;;
58302;SDS011;44109;52.398;7.024;2022-08-19T14:41:24;6.60;;;5.90;;
58302;SDS011;44109;52.398;7.024;2022-08-19T14:43:52;6.85;;;6.03;;
58302;SDS011;44109;52.398;7.024;2022-08-19T14:46:22;8.63;;;6.95;;
58302;SDS011;44109;52.398;7.024;2022-08-19T14:48:52;8.27;;;7.25;;
58302;SDS011;44109;52.398;7.024;2022-08-19T14:51:21;8.00;;;6.85;;
58302;SDS011;44109;52.398;7.024;2022-08-19T14:53:52;8.35;;;6.88;;
58302;SDS011;44109;52.398;7.024;2022-08-19T14:56:22;8.85;;;6.50;;
58302;SDS011;44109;52.398;7.024;2022-08-19T14:58:54;9.00;;;7.40;;
58302;SDS011;44109;52.398;7.024;2022-08-19T15:01:24;8.50;;;6.40;;
58302;SDS011;44109;52.398;7.024;2022-08-19T15:03:53;8.68;;;6.93;;
58302;SDS011;44109;52.398;7.024;2022-08-19T15:06:21;7.10;;;5.80;;
58302;SDS011;44109;52.398;7.024;2022-08-19T15:08:50;8.60;;;5.70;;
58302;SDS011;44109;52.398;7.024;2022-08-19T15:11:19;6.93;;;5.70;;
58302;SDS011;44109;52.398;7.024;2022-08-19T15:13:53;6.97;;;5.80;;